sensor_id;sensor_type;location;lat;lon;timestamp;P1;durP1;ratioP1;P2;durP2;ratioP2
4638;SDS011;2332;38.646;-9.154;2024-01-25T00:01:11;24.93;;;14.60;;
4638;SDS011;2332;38.646;-9.154;2024-01-25T00:03:39;24.07;;;14.57;;
4638;SDS011;2332;38.646;-9.154;2024-01-25T00:06:04;18.33;;;13.63;;
4638;SDS011;2332;38.646;-9.154;2024-01-25T00:08:30;20.50;;;13.93;;
4638;SDS011;2332;38.646;-9.154;2024-01-25T00:10:55;18.13;;;13.10;;
4638;SDS011;2332;38.646;-9.154;2024-01-25T00:13:21;23.80;;;13.90;;
4638;SDS011;2332;38.646;-9.154;2024-01-25T00:15:46;22.30;;;14.00;;
4638;SDS011;2332;38.646;-9.154;2024-01-25T00:18:11;21.73;;;13.30;;
4638;SDS011;2332;38.646;-9.154;2024-01-25T00:20:37;22.37;;;14.43;;
4638;SDS011;2332;38.646;-9.154;2024-01-25T00:23:02;23.27;;;13.73;;
4638;SDS011;2332;38.646;-9.154;2024-01-25T00:25:27;25.23;;;15.37;;
4638;SDS011;2332;38.646;-9.154;2024-01-25T00:27:53;19.33;;;13.57;;
4638;SDS011;2332;38.646;-9.154;2024-01-25T00:30:18;25.00;;;14.17;;
4638;SDS011;2332;38.646;-9.154;2024-01-25T00:32:44;20.60;;;13.57;;
4638;SDS011;2332;38.646;-9.154;2024-01-25T00:35:09;20.27;;;13.43;;
4638;SDS011;2332;38.646;-9.154;2024-01-25T00:37:36;21.60;;;12.90;;
4638;SDS011;2332;38.646;-9.154;2024-01-25T00:40:01;19.70;;;12.53;;
4638;SDS011;2332;38.646;-9.154;2024-01-25T00:42:27;13.53;;;12.00;;
4638;SDS011;2332;38.646;-9.154;2024-01-25T00:44:53;17.37;;;11.63;;
4638;SDS011;2332;38.646;-9.154;2024-01-25T00:47:19;15.43;;;12.20;;
4638;SDS011;2332;38.646;-9.154;2024-01-25T00:49:44;17.60;;;12.27;;
4638;SDS011;2332;38.646;-9.154;2024-01-25T00:52:10;17.93;;;12.27;;
4638;SDS011;2332;38.646;-9.154;2024-01-25T00:54:35;20.10;;;12.17;;
4638;SDS011;2332;38.646;-9.154;2024-01-25T00:57:01;15.90;;;11.13;;
4638;SDS011;2332;38.646;-9.154;2024-01-25T00:59:26;20.33;;;12.93;;
4638;SDS011;2332;38.646;-9.154;2024-01-25T01:01:52;19.23;;;12.30;;
4638;SDS011;2332;38.646;-9.154;2024-01-25T01:04:18;19.23;;;13.20;;
4638;SDS011;2332;38.646;-9.154;2024-01-25T01:06:43;19.23;;;12.47;;
4638;SDS011;2332;38.646;-9.154;2024-01-25T01:09:09;22.63;;;13.10;;
4638;SDS011;2332;38.646;-9.154;2024-01-25T01:11:35;22.40;;;13.07;;
4638;SDS011;2332;38.646;-9.154;2024-01-25T01:14:01;20.20;;;12.83;;
4638;SDS011;2332;38.646;-9.154;2024-01-25T01:16:27;17.17;;;12.90;;
4638;SDS011;2332;38.646;-9.154;2024-01-25T01:18:52;17.57;;;13.20;;
4638;SDS011;2332;38.646;-9.154;2024-01-25T01:21:17;23.80;;;12.90;;
4638;SDS011;2332;38.646;-9.154;2024-01-25T01:23:43;15.50;;;12.57;;
4638;SDS011;2332;38.646;-9.154;2024-01-25T01:26:08;20.93;;;13.43;;
4638;SDS011;2332;38.646;-9.154;2024-01-25T01:28:34;21.93;;;14.30;;
4638;SDS011;2332;38.646;-9.154;2024-01-25T01:31:00;20.90;;;13.70;;
4638;SDS011;2332;38.646;-9.154;2024-01-25T01:33:27;16.37;;;12.63;;
4638;SDS011;2332;38.646;-9.154;2024-01-25T01:35:52;24.67;;;14.60;;
4638;SDS011;2332;38.646;-9.154;2024-01-25T01:38:18;20.60;;;15.33;;
4638;SDS011;2332;38.646;-9.154;2024-01-25T01:40:44;18.70;;;14.33;;
4638;SDS011;2332;38.646;-9.154;2024-01-25T01:43:17;26.23;;;14.47;;
4638;SDS011;2332;38.646;-9.154;2024-01-25T01:45:42;18.50;;;13.73;;
4638;SDS011;2332;38.646;-9.154;2024-01-25T01:48:07;21.60;;;15.23;;
4638;SDS011;2332;38.646;-9.154;2024-01-25T01:50:33;21.97;;;15.20;;
4638;SDS011;2332;38.646;-9.154;2024-01-25T01:52:58;23.77;;;15.90;;
4638;SDS011;2332;38.646;-9.154;2024-01-25T01:55:23;22.17;;;15.93;;
4638;SDS011;2332;38.646;-9.154;2024-01-25T01:57:49;24.33;;;17.40;;
4638;SDS011;2332;38.646;-9.154;2024-01-25T02:00:15;24.17;;;16.73;;
4638;SDS011;2332;38.646;-9.154;2024-01-25T02:02:42;24.67;;;17.30;;
4638;SDS011;2332;38.646;-9.154;2024-01-25T02:05:07;25.37;;;18.03;;
4638;SDS011;2332;38.646;-9.154;2024-01-25T02:07:33;25.43;;;18.70;;
4638;SDS011;2332;38.646;-9.154;2024-01-25T02:09:58;26.60;;;19.33;;
4638;SDS011;2332;38.646;-9.154;2024-01-25T02:12:24;28.70;;;19.50;;
4638;SDS011;2332;38.646;-9.154;2024-01-25T02:14:49;29.27;;;19.50;;
4638;SDS011;2332;38.646;-9.154;2024-01-25T02:17:14;29.43;;;20.07;;
4638;SDS011;2332;38.646;-9.154;2024-01-25T02:19:40;32.53;;;20.27;;
4638;SDS011;2332;38.646;-9.154;2024-01-25T02:22:05;35.73;;;19.70;;
4638;SDS011;2332;38.646;-9.154;2024-01-25T02:24:31;30.80;;;19.00;;
4638;SDS011;2332;38.646;-9.154;2024-01-25T02:26:56;30.10;;;20.97;;
4638;SDS011;2332;38.646;-9.154;2024-01-25T02:29:21;25.43;;;19.87;;
4638;SDS011;2332;38.646;-9.154;2024-01-25T02:31:47;28.87;;;20.73;;
4638;SDS011;2332;38.646;-9.154;2024-01-25T02:34:13;33.33;;;21.63;;
4638;SDS011;2332;38.646;-9.154;2024-01-25T02:36:38;29.37;;;21.00;;
4638;SDS011;2332;38.646;-9.154;2024-01-25T02:39:04;31.40;;;21.00;;
4638;SDS011;2332;38.646;-9.154;2024-01-25T02:41:30;29.00;;;20.00;;
4638;SDS011;2332;38.646;-9.154;2024-01-25T02:43:55;30.67;;;21.53;;
4638;SDS011;2332;38.646;-9.154;2024-01-25T02:46:21;29.23;;;21.20;;
4638;SDS011;2332;38.646;-9.154;2024-01-25T02:48:46;30.73;;;22.00;;
4638;SDS011;2332;38.646;-9.154;2024-01-25T02:51:12;31.43;;;21.30;;
4638;SDS011;2332;38.646;-9.154;2024-01-25T02:53:37;37.20;;;22.13;;
4638;SDS011;2332;38.646;-9.154;2024-01-25T02:56:02;31.80;;;21.93;;
4638;SDS011;2332;38.646;-9.154;2024-01-25T02:58:28;31.20;;;21.07;;
4638;SDS011;2332;38.646;-9.154;2024-01-25T03:00:53;29.13;;;21.50;;
4638;SDS011;2332;38.646;-9.154;2024-01-25T03:03:19;28.77;;;21.13;;
4638;SDS011;2332;38.646;-9.154;2024-01-25T03:05:44;31.50;;;23.00;;
4638;SDS011;2332;38.646;-9.154;2024-01-25T03:08:10;32.10;;;21.90;;
4638;SDS011;2332;38.646;-9.154;2024-01-25T03:10:35;34.07;;;22.10;;
4638;SDS011;2332;38.646;-9.154;2024-01-25T03:13:00;33.40;;;22.07;;
4638;SDS011;2332;38.646;-9.154;2024-01-25T03:15:26;34.53;;;23.83;;
4638;SDS011;2332;38.646;-9.154;2024-01-25T03:17:51;36.27;;;22.77;;
4638;SDS011;2332;38.646;-9.154;2024-01-25T03:20:17;33.83;;;22.50;;
4638;SDS011;2332;38.646;-9.154;2024-01-25T03:22:42;33.83;;;22.70;;
4638;SDS011;2332;38.646;-9.154;2024-01-25T03:25:08;40.60;;;23.90;;
4638;SDS011;2332;38.646;-9.154;2024-01-25T03:27:34;32.43;;;22.97;;
4638;SDS011;2332;38.646;-9.154;2024-01-25T03:29:59;33.20;;;24.07;;
4638;SDS011;2332;38.646;-9.154;2024-01-25T03:32:24;35.17;;;23.13;;
4638;SDS011;2332;38.646;-9.154;2024-01-25T03:34:50;38.10;;;26.10;;
4638;SDS011;2332;38.646;-9.154;2024-01-25T03:37:15;38.03;;;25.33;;
4638;SDS011;2332;38.646;-9.154;2024-01-25T03:39:41;33.87;;;25.33;;
4638;SDS011;2332;38.646;-9.154;2024-01-25T03:42:06;32.70;;;24.47;;
4638;SDS011;2332;38.646;-9.154;2024-01-25T03:44:31;38.70;;;26.23;;
4638;SDS011;2332;38.646;-9.154;2024-01-25T03:46:57;35.40;;;24.50;;
4638;SDS011;2332;38.646;-9.154;2024-01-25T03:49:22;42.70;;;25.23;;
4638;SDS011;2332;38.646;-9.154;2024-01-25T03:51:48;42.30;;;25.17;;
4638;SDS011;2332;38.646;-9.154;2024-01-25T03:54:13;41.00;;;25.80;;
4638;SDS011;2332;38.646;-9.154;2024-01-25T03:56:39;41.23;;;24.70;;
4638;SDS011;2332;38.646;-9.154;2024-01-25T03:59:04;36.20;;;24.63;;
4638;SDS011;2332;38.646;-9.154;2024-01-25T04:01:40;38.10;;;26.20;;
4638;SDS011;2332;38.646;-9.154;2024-01-25T04:04:05;37.90;;;25.03;;
4638;SDS011;2332;38.646;-9.154;2024-01-25T04:06:33;36.10;;;25.57;;
4638;SDS011;2332;38.646;-9.154;2024-01-25T04:08:58;39.33;;;26.47;;
4638;SDS011;2332;38.646;-9.154;2024-01-25T04:11:23;36.40;;;24.63;;
4638;SDS011;2332;38.646;-9.154;2024-01-25T04:13:49;39.57;;;25.90;;
4638;SDS011;2332;38.646;-9.154;2024-01-25T04:16:14;42.23;;;25.67;;
4638;SDS011;2332;38.646;-9.154;2024-01-25T04:18:40;37.63;;;26.80;;
4638;SDS011;2332;38.646;-9.154;2024-01-25T04:21:05;42.83;;;26.17;;
4638;SDS011;2332;38.646;-9.154;2024-01-25T04:23:30;41.33;;;26.00;;
4638;SDS011;2332;38.646;-9.154;2024-01-25T04:25:56;36.97;;;24.20;;
4638;SDS011;2332;38.646;-9.154;2024-01-25T04:28:21;44.40;;;26.53;;
4638;SDS011;2332;38.646;-9.154;2024-01-25T04:30:46;38.13;;;24.93;;
4638;SDS011;2332;38.646;-9.154;2024-01-25T04:33:12;37.90;;;24.40;;
4638;SDS011;2332;38.646;-9.154;2024-01-25T04:35:37;41.17;;;25.20;;
4638;SDS011;2332;38.646;-9.154;2024-01-25T04:38:03;33.83;;;23.40;;
4638;SDS011;2332;38.646;-9.154;2024-01-25T04:40:28;35.27;;;23.77;;
4638;SDS011;2332;38.646;-9.154;2024-01-25T04:42:54;35.93;;;23.80;;
4638;SDS011;2332;38.646;-9.154;2024-01-25T04:45:19;36.97;;;23.60;;
4638;SDS011;2332;38.646;-9.154;2024-01-25T04:47:44;35.00;;;22.80;;
4638;SDS011;2332;38.646;-9.154;2024-01-25T04:50:10;31.33;;;21.90;;
4638;SDS011;2332;38.646;-9.154;2024-01-25T04:52:35;36.70;;;23.80;;
4638;SDS011;2332;38.646;-9.154;2024-01-25T04:55:00;36.57;;;23.70;;
4638;SDS011;2332;38.646;-9.154;2024-01-25T04:57:26;37.80;;;22.03;;
4638;SDS011;2332;38.646;-9.154;2024-01-25T04:59:51;36.10;;;23.37;;
4638;SDS011;2332;38.646;-9.154;2024-01-25T05:02:17;36.93;;;23.70;;
4638;SDS011;2332;38.646;-9.154;2024-01-25T05:04:42;35.90;;;24.03;;
4638;SDS011;2332;38.646;-9.154;2024-01-25T05:07:07;33.70;;;23.27;;
4638;SDS011;2332;38.646;-9.154;2024-01-25T05:09:33;35.20;;;23.27;;
4638;SDS011;2332;38.646;-9.154;2024-01-25T05:11:58;38.53;;;23.57;;
4638;SDS011;2332;38.646;-9.154;2024-01-25T05:14:27;38.27;;;24.20;;
4638;SDS011;2332;38.646;-9.154;2024-01-25T05:16:52;40.03;;;24.27;;
4638;SDS011;2332;38.646;-9.154;2024-01-25T05:19:18;35.20;;;23.97;;
4638;SDS011;2332;38.646;-9.154;2024-01-25T05:21:43;38.63;;;24.10;;
4638;SDS011;2332;38.646;-9.154;2024-01-25T05:24:08;40.83;;;25.13;;
4638;SDS011;2332;38.646;-9.154;2024-01-25T05:26:35;41.27;;;26.10;;
4638;SDS011;2332;38.646;-9.154;2024-01-25T05:29:00;37.53;;;25.10;;
4638;SDS011;2332;38.646;-9.154;2024-01-25T05:31:26;37.40;;;25.10;;
4638;SDS011;2332;38.646;-9.154;2024-01-25T05:33:51;38.07;;;24.60;;
4638;SDS011;2332;38.646;-9.154;2024-01-25T05:36:16;38.63;;;26.40;;
4638;SDS011;2332;38.646;-9.154;2024-01-25T05:38:42;40.00;;;24.43;;
4638;SDS011;2332;38.646;-9.154;2024-01-25T05:41:07;37.90;;;23.90;;
4638;SDS011;2332;38.646;-9.154;2024-01-25T05:43:33;35.07;;;24.83;;
4638;SDS011;2332;38.646;-9.154;2024-01-25T05:45:58;34.07;;;24.67;;
4638;SDS011;2332;38.646;-9.154;2024-01-25T05:48:23;35.40;;;24.50;;
4638;SDS011;2332;38.646;-9.154;2024-01-25T05:50:49;38.03;;;24.40;;
4638;SDS011;2332;38.646;-9.154;2024-01-25T05:53:14;39.10;;;24.10;;
4638;SDS011;2332;38.646;-9.154;2024-01-25T05:55:41;37.47;;;23.50;;
4638;SDS011;2332;38.646;-9.154;2024-01-25T05:58:07;41.13;;;23.37;;
4638;SDS011;2332;38.646;-9.154;2024-01-25T06:00:32;37.17;;;24.13;;
4638;SDS011;2332;38.646;-9.154;2024-01-25T06:02:58;40.70;;;25.87;;
4638;SDS011;2332;38.646;-9.154;2024-01-25T06:05:24;40.03;;;24.97;;
4638;SDS011;2332;38.646;-9.154;2024-01-25T06:07:49;37.03;;;24.23;;
4638;SDS011;2332;38.646;-9.154;2024-01-25T06:10:15;40.33;;;25.10;;
4638;SDS011;2332;38.646;-9.154;2024-01-25T06:12:40;40.27;;;24.80;;
4638;SDS011;2332;38.646;-9.154;2024-01-25T06:15:06;36.20;;;24.60;;
4638;SDS011;2332;38.646;-9.154;2024-01-25T06:17:32;41.53;;;25.77;;
4638;SDS011;2332;38.646;-9.154;2024-01-25T06:19:57;42.37;;;26.37;;
4638;SDS011;2332;38.646;-9.154;2024-01-25T06:22:23;42.40;;;24.40;;
4638;SDS011;2332;38.646;-9.154;2024-01-25T06:24:48;34.73;;;24.37;;
4638;SDS011;2332;38.646;-9.154;2024-01-25T06:27:14;42.40;;;25.93;;
4638;SDS011;2332;38.646;-9.154;2024-01-25T06:29:39;40.23;;;24.97;;
4638;SDS011;2332;38.646;-9.154;2024-01-25T06:32:05;40.50;;;24.00;;
4638;SDS011;2332;38.646;-9.154;2024-01-25T06:34:30;36.20;;;24.33;;
4638;SDS011;2332;38.646;-9.154;2024-01-25T06:36:56;40.53;;;25.10;;
4638;SDS011;2332;38.646;-9.154;2024-01-25T06:39:21;39.77;;;24.47;;
4638;SDS011;2332;38.646;-9.154;2024-01-25T06:41:47;35.77;;;24.57;;
4638;SDS011;2332;38.646;-9.154;2024-01-25T06:44:12;37.00;;;24.13;;
4638;SDS011;2332;38.646;-9.154;2024-01-25T06:46:38;38.43;;;23.03;;
4638;SDS011;2332;38.646;-9.154;2024-01-25T06:49:03;36.50;;;23.90;;
4638;SDS011;2332;38.646;-9.154;2024-01-25T06:51:28;39.50;;;25.77;;
4638;SDS011;2332;38.646;-9.154;2024-01-25T06:53:54;40.67;;;25.80;;
4638;SDS011;2332;38.646;-9.154;2024-01-25T06:56:19;38.90;;;24.30;;
4638;SDS011;2332;38.646;-9.154;2024-01-25T06:58:45;35.87;;;24.03;;
4638;SDS011;2332;38.646;-9.154;2024-01-25T07:01:10;37.90;;;24.83;;
4638;SDS011;2332;38.646;-9.154;2024-01-25T07:03:36;40.00;;;25.33;;
4638;SDS011;2332;38.646;-9.154;2024-01-25T07:06:01;38.43;;;24.57;;
4638;SDS011;2332;38.646;-9.154;2024-01-25T07:08:27;38.70;;;25.03;;
4638;SDS011;2332;38.646;-9.154;2024-01-25T07:10:52;39.90;;;24.93;;
4638;SDS011;2332;38.646;-9.154;2024-01-25T07:13:18;41.23;;;24.60;;
4638;SDS011;2332;38.646;-9.154;2024-01-25T07:15:43;40.37;;;25.20;;
4638;SDS011;2332;38.646;-9.154;2024-01-25T07:18:08;40.63;;;25.90;;
4638;SDS011;2332;38.646;-9.154;2024-01-25T07:20:34;37.77;;;23.60;;
4638;SDS011;2332;38.646;-9.154;2024-01-25T07:23:00;40.60;;;25.10;;
4638;SDS011;2332;38.646;-9.154;2024-01-25T07:25:26;40.77;;;25.67;;
4638;SDS011;2332;38.646;-9.154;2024-01-25T07:27:51;40.70;;;23.93;;
4638;SDS011;2332;38.646;-9.154;2024-01-25T07:30:16;46.70;;;24.10;;
4638;SDS011;2332;38.646;-9.154;2024-01-25T07:32:42;32.70;;;22.40;;
4638;SDS011;2332;38.646;-9.154;2024-01-25T07:35:10;38.30;;;23.60;;
4638;SDS011;2332;38.646;-9.154;2024-01-25T07:37:36;36.77;;;23.77;;
4638;SDS011;2332;38.646;-9.154;2024-01-25T07:40:01;34.80;;;22.43;;
4638;SDS011;2332;38.646;-9.154;2024-01-25T07:42:28;44.23;;;23.80;;
4638;SDS011;2332;38.646;-9.154;2024-01-25T07:44:54;34.10;;;21.70;;
4638;SDS011;2332;38.646;-9.154;2024-01-25T07:47:19;38.77;;;22.73;;
4638;SDS011;2332;38.646;-9.154;2024-01-25T07:49:45;33.50;;;22.33;;
4638;SDS011;2332;38.646;-9.154;2024-01-25T07:52:10;35.90;;;23.03;;
4638;SDS011;2332;38.646;-9.154;2024-01-25T07:54:35;34.67;;;22.67;;
4638;SDS011;2332;38.646;-9.154;2024-01-25T07:57:01;32.60;;;22.40;;
4638;SDS011;2332;38.646;-9.154;2024-01-25T07:59:26;40.80;;;23.33;;
4638;SDS011;2332;38.646;-9.154;2024-01-25T08:01:51;36.83;;;24.63;;
4638;SDS011;2332;38.646;-9.154;2024-01-25T08:04:17;37.17;;;24.00;;
4638;SDS011;2332;38.646;-9.154;2024-01-25T08:06:42;33.53;;;22.70;;
4638;SDS011;2332;38.646;-9.154;2024-01-25T08:09:07;34.87;;;22.97;;
4638;SDS011;2332;38.646;-9.154;2024-01-25T08:11:34;35.50;;;22.93;;
4638;SDS011;2332;38.646;-9.154;2024-01-25T08:14:00;36.87;;;22.60;;
4638;SDS011;2332;38.646;-9.154;2024-01-25T08:16:25;33.67;;;22.77;;
4638;SDS011;2332;38.646;-9.154;2024-01-25T08:18:51;39.37;;;22.67;;
4638;SDS011;2332;38.646;-9.154;2024-01-25T08:21:17;35.57;;;22.30;;
4638;SDS011;2332;38.646;-9.154;2024-01-25T08:23:42;38.57;;;22.13;;
4638;SDS011;2332;38.646;-9.154;2024-01-25T08:26:07;38.87;;;22.40;;
4638;SDS011;2332;38.646;-9.154;2024-01-25T08:28:41;34.93;;;21.80;;
4638;SDS011;2332;38.646;-9.154;2024-01-25T08:31:10;32.70;;;21.63;;
4638;SDS011;2332;38.646;-9.154;2024-01-25T08:33:36;37.70;;;24.50;;
4638;SDS011;2332;38.646;-9.154;2024-01-25T08:36:01;34.47;;;21.30;;
4638;SDS011;2332;38.646;-9.154;2024-01-25T08:38:27;29.87;;;20.27;;
4638;SDS011;2332;38.646;-9.154;2024-01-25T08:40:52;29.10;;;19.63;;
4638;SDS011;2332;38.646;-9.154;2024-01-25T08:43:18;30.33;;;21.13;;
4638;SDS011;2332;38.646;-9.154;2024-01-25T08:45:43;31.83;;;18.77;;
4638;SDS011;2332;38.646;-9.154;2024-01-25T08:48:09;27.70;;;18.80;;
4638;SDS011;2332;38.646;-9.154;2024-01-25T08:50:34;27.37;;;18.53;;
4638;SDS011;2332;38.646;-9.154;2024-01-25T08:53:00;29.40;;;17.93;;
4638;SDS011;2332;38.646;-9.154;2024-01-25T08:55:26;24.97;;;17.80;;
4638;SDS011;2332;38.646;-9.154;2024-01-25T08:57:51;27.27;;;16.00;;
4638;SDS011;2332;38.646;-9.154;2024-01-25T09:00:16;25.03;;;17.37;;
4638;SDS011;2332;38.646;-9.154;2024-01-25T09:02:43;24.97;;;16.10;;
4638;SDS011;2332;38.646;-9.154;2024-01-25T09:05:08;23.73;;;17.00;;
4638;SDS011;2332;38.646;-9.154;2024-01-25T09:07:34;26.13;;;17.17;;
4638;SDS011;2332;38.646;-9.154;2024-01-25T09:10:00;27.93;;;16.27;;
4638;SDS011;2332;38.646;-9.154;2024-01-25T09:12:25;26.47;;;16.43;;
4638;SDS011;2332;38.646;-9.154;2024-01-25T09:14:50;23.03;;;16.30;;
4638;SDS011;2332;38.646;-9.154;2024-01-25T09:17:16;24.20;;;15.97;;
4638;SDS011;2332;38.646;-9.154;2024-01-25T09:19:47;24.30;;;14.77;;
4638;SDS011;2332;38.646;-9.154;2024-01-25T09:22:12;25.33;;;15.60;;
4638;SDS011;2332;38.646;-9.154;2024-01-25T09:24:37;24.97;;;16.70;;
4638;SDS011;2332;38.646;-9.154;2024-01-25T09:27:05;28.10;;;16.40;;
4638;SDS011;2332;38.646;-9.154;2024-01-25T09:29:30;22.03;;;15.23;;
4638;SDS011;2332;38.646;-9.154;2024-01-25T09:31:56;19.80;;;14.00;;
4638;SDS011;2332;38.646;-9.154;2024-01-25T09:34:21;20.70;;;15.87;;
4638;SDS011;2332;38.646;-9.154;2024-01-25T09:36:47;21.87;;;14.20;;
4638;SDS011;2332;38.646;-9.154;2024-01-25T09:39:12;19.40;;;14.03;;
4638;SDS011;2332;38.646;-9.154;2024-01-25T09:41:39;17.77;;;13.00;;
4638;SDS011;2332;38.646;-9.154;2024-01-25T09:44:06;22.70;;;13.37;;
4638;SDS011;2332;38.646;-9.154;2024-01-25T09:46:32;22.30;;;13.63;;
4638;SDS011;2332;38.646;-9.154;2024-01-25T09:48:58;16.53;;;12.67;;
4638;SDS011;2332;38.646;-9.154;2024-01-25T09:51:23;19.13;;;13.50;;
4638;SDS011;2332;38.646;-9.154;2024-01-25T09:53:49;19.07;;;13.17;;
4638;SDS011;2332;38.646;-9.154;2024-01-25T09:56:15;16.77;;;11.83;;
4638;SDS011;2332;38.646;-9.154;2024-01-25T09:58:43;14.90;;;11.73;;
4638;SDS011;2332;38.646;-9.154;2024-01-25T10:01:11;15.40;;;11.33;;
4638;SDS011;2332;38.646;-9.154;2024-01-25T10:03:37;16.63;;;10.87;;
4638;SDS011;2332;38.646;-9.154;2024-01-25T10:06:05;13.57;;;11.00;;
4638;SDS011;2332;38.646;-9.154;2024-01-25T10:08:30;14.13;;;9.93;;
4638;SDS011;2332;38.646;-9.154;2024-01-25T10:10:56;15.00;;;10.93;;
4638;SDS011;2332;38.646;-9.154;2024-01-25T10:13:21;15.37;;;11.37;;
4638;SDS011;2332;38.646;-9.154;2024-01-25T10:15:47;17.27;;;10.80;;
4638;SDS011;2332;38.646;-9.154;2024-01-25T10:18:16;13.60;;;10.47;;
4638;SDS011;2332;38.646;-9.154;2024-01-25T10:20:42;12.50;;;10.10;;
4638;SDS011;2332;38.646;-9.154;2024-01-25T10:23:07;16.83;;;10.27;;
4638;SDS011;2332;38.646;-9.154;2024-01-25T10:25:34;13.60;;;10.00;;
4638;SDS011;2332;38.646;-9.154;2024-01-25T10:27:59;16.70;;;11.10;;
4638;SDS011;2332;38.646;-9.154;2024-01-25T10:30:25;12.97;;;9.97;;
4638;SDS011;2332;38.646;-9.154;2024-01-25T10:32:50;14.27;;;9.50;;
4638;SDS011;2332;38.646;-9.154;2024-01-25T10:35:16;12.37;;;8.83;;
4638;SDS011;2332;38.646;-9.154;2024-01-25T10:37:43;13.53;;;9.60;;
4638;SDS011;2332;38.646;-9.154;2024-01-25T10:40:09;12.30;;;9.73;;
4638;SDS011;2332;38.646;-9.154;2024-01-25T10:42:35;11.80;;;9.33;;
4638;SDS011;2332;38.646;-9.154;2024-01-25T10:45:00;11.20;;;9.60;;
4638;SDS011;2332;38.646;-9.154;2024-01-25T10:47:26;9.30;;;8.37;;
4638;SDS011;2332;38.646;-9.154;2024-01-25T10:49:55;11.60;;;9.30;;
4638;SDS011;2332;38.646;-9.154;2024-01-25T10:52:22;11.23;;;8.80;;
4638;SDS011;2332;38.646;-9.154;2024-01-25T10:54:49;10.63;;;8.60;;
4638;SDS011;2332;38.646;-9.154;2024-01-25T10:57:14;10.43;;;8.87;;
4638;SDS011;2332;38.646;-9.154;2024-01-25T10:59:40;10.50;;;9.00;;
4638;SDS011;2332;38.646;-9.154;2024-01-25T11:02:05;12.63;;;8.90;;
4638;SDS011;2332;38.646;-9.154;2024-01-25T11:04:32;9.23;;;8.23;;
4638;SDS011;2332;38.646;-9.154;2024-01-25T11:07:04;11.60;;;8.63;;
4638;SDS011;2332;38.646;-9.154;2024-01-25T11:09:31;10.13;;;8.60;;
4638;SDS011;2332;38.646;-9.154;2024-01-25T11:11:58;10.93;;;8.63;;
4638;SDS011;2332;38.646;-9.154;2024-01-25T11:14:25;8.20;;;7.20;;
4638;SDS011;2332;38.646;-9.154;2024-01-25T11:16:50;12.47;;;7.87;;
4638;SDS011;2332;38.646;-9.154;2024-01-25T11:19:19;10.00;;;8.03;;
4638;SDS011;2332;38.646;-9.154;2024-01-25T11:21:45;9.40;;;8.50;;
4638;SDS011;2332;38.646;-9.154;2024-01-25T11:26:40;8.57;;;7.67;;
4638;SDS011;2332;38.646;-9.154;2024-01-25T11:29:05;11.33;;;8.70;;
4638;SDS011;2332;38.646;-9.154;2024-01-25T11:31:31;9.70;;;7.83;;
4638;SDS011;2332;38.646;-9.154;2024-01-25T11:33:59;10.10;;;8.00;;
4638;SDS011;2332;38.646;-9.154;2024-01-25T11:36:25;11.90;;;8.10;;
4638;SDS011;2332;38.646;-9.154;2024-01-25T11:38:51;10.40;;;8.67;;
4638;SDS011;2332;38.646;-9.154;2024-01-25T11:41:16;11.87;;;9.47;;
4638;SDS011;2332;38.646;-9.154;2024-01-25T11:43:42;10.67;;;7.87;;
4638;SDS011;2332;38.646;-9.154;2024-01-25T11:46:08;12.50;;;8.73;;
4638;SDS011;2332;38.646;-9.154;2024-01-25T11:48:33;12.80;;;9.40;;
4638;SDS011;2332;38.646;-9.154;2024-01-25T11:50:59;11.87;;;8.70;;
4638;SDS011;2332;38.646;-9.154;2024-01-25T11:53:25;13.53;;;9.50;;
4638;SDS011;2332;38.646;-9.154;2024-01-25T11:55:50;11.17;;;9.40;;
4638;SDS011;2332;38.646;-9.154;2024-01-25T11:58:16;12.90;;;9.40;;
4638;SDS011;2332;38.646;-9.154;2024-01-25T12:00:41;9.03;;;7.97;;
4638;SDS011;2332;38.646;-9.154;2024-01-25T12:03:07;9.10;;;8.20;;
4638;SDS011;2332;38.646;-9.154;2024-01-25T12:05:33;11.07;;;9.50;;
4638;SDS011;2332;38.646;-9.154;2024-01-25T12:07:59;9.37;;;8.33;;
4638;SDS011;2332;38.646;-9.154;2024-01-25T12:10:24;12.20;;;8.90;;
4638;SDS011;2332;38.646;-9.154;2024-01-25T12:12:51;10.57;;;8.50;;
4638;SDS011;2332;38.646;-9.154;2024-01-25T12:15:16;10.40;;;9.27;;
4638;SDS011;2332;38.646;-9.154;2024-01-25T12:17:42;11.17;;;9.83;;
4638;SDS011;2332;38.646;-9.154;2024-01-25T12:20:08;10.27;;;8.40;;
4638;SDS011;2332;38.646;-9.154;2024-01-25T12:22:36;9.83;;;8.80;;
4638;SDS011;2332;38.646;-9.154;2024-01-25T12:25:01;10.20;;;9.20;;
4638;SDS011;2332;38.646;-9.154;2024-01-25T12:27:28;13.93;;;9.50;;
4638;SDS011;2332;38.646;-9.154;2024-01-25T12:29:55;10.37;;;9.27;;
4638;SDS011;2332;38.646;-9.154;2024-01-25T12:32:21;11.07;;;8.83;;
4638;SDS011;2332;38.646;-9.154;2024-01-25T12:34:56;10.60;;;9.47;;
4638;SDS011;2332;38.646;-9.154;2024-01-25T12:37:22;14.50;;;9.30;;
4638;SDS011;2332;38.646;-9.154;2024-01-25T12:39:48;12.33;;;8.83;;
4638;SDS011;2332;38.646;-9.154;2024-01-25T12:42:13;11.33;;;9.83;;
4638;SDS011;2332;38.646;-9.154;2024-01-25T12:44:39;12.40;;;9.90;;
4638;SDS011;2332;38.646;-9.154;2024-01-25T12:47:04;10.77;;;9.70;;
4638;SDS011;2332;38.646;-9.154;2024-01-25T12:49:31;13.53;;;9.73;;
4638;SDS011;2332;38.646;-9.154;2024-01-25T12:51:57;11.10;;;9.07;;
4638;SDS011;2332;38.646;-9.154;2024-01-25T12:54:22;11.43;;;9.10;;
4638;SDS011;2332;38.646;-9.154;2024-01-25T12:56:48;11.93;;;9.10;;
4638;SDS011;2332;38.646;-9.154;2024-01-25T12:59:13;12.83;;;9.87;;
4638;SDS011;2332;38.646;-9.154;2024-01-25T13:01:38;12.50;;;9.70;;
4638;SDS011;2332;38.646;-9.154;2024-01-25T13:04:04;17.90;;;9.30;;
4638;SDS011;2332;38.646;-9.154;2024-01-25T13:06:29;12.00;;;9.90;;
4638;SDS011;2332;38.646;-9.154;2024-01-25T13:08:55;14.93;;;9.80;;
4638;SDS011;2332;38.646;-9.154;2024-01-25T13:11:20;12.97;;;9.23;;
4638;SDS011;2332;38.646;-9.154;2024-01-25T13:13:46;10.93;;;9.40;;
4638;SDS011;2332;38.646;-9.154;2024-01-25T13:16:11;11.33;;;9.63;;
4638;SDS011;2332;38.646;-9.154;2024-01-25T13:18:37;13.90;;;10.20;;
4638;SDS011;2332;38.646;-9.154;2024-01-25T13:21:02;11.70;;;9.37;;
4638;SDS011;2332;38.646;-9.154;2024-01-25T13:23:27;10.03;;;8.57;;
4638;SDS011;2332;38.646;-9.154;2024-01-25T13:25:53;10.77;;;8.93;;
4638;SDS011;2332;38.646;-9.154;2024-01-25T13:28:18;13.73;;;9.73;;
4638;SDS011;2332;38.646;-9.154;2024-01-25T13:30:44;11.30;;;9.03;;
4638;SDS011;2332;38.646;-9.154;2024-01-25T13:33:09;11.40;;;8.80;;
4638;SDS011;2332;38.646;-9.154;2024-01-25T13:35:34;10.80;;;9.00;;
4638;SDS011;2332;38.646;-9.154;2024-01-25T13:38:00;9.73;;;8.80;;
4638;SDS011;2332;38.646;-9.154;2024-01-25T13:40:27;11.60;;;8.00;;
4638;SDS011;2332;38.646;-9.154;2024-01-25T13:42:52;11.73;;;9.33;;
4638;SDS011;2332;38.646;-9.154;2024-01-25T13:45:19;13.63;;;9.20;;
4638;SDS011;2332;38.646;-9.154;2024-01-25T13:47:45;9.03;;;7.90;;
4638;SDS011;2332;38.646;-9.154;2024-01-25T13:50:10;8.70;;;7.70;;
4638;SDS011;2332;38.646;-9.154;2024-01-25T13:52:35;10.70;;;8.60;;
4638;SDS011;2332;38.646;-9.154;2024-01-25T13:55:01;9.73;;;8.13;;
4638;SDS011;2332;38.646;-9.154;2024-01-25T13:57:26;10.50;;;9.27;;
4638;SDS011;2332;38.646;-9.154;2024-01-25T13:59:52;13.40;;;9.47;;
4638;SDS011;2332;38.646;-9.154;2024-01-25T14:02:17;11.13;;;8.90;;
4638;SDS011;2332;38.646;-9.154;2024-01-25T14:04:42;11.60;;;9.93;;
4638;SDS011;2332;38.646;-9.154;2024-01-25T14:07:08;12.33;;;8.80;;
4638;SDS011;2332;38.646;-9.154;2024-01-25T14:09:33;10.30;;;9.27;;
4638;SDS011;2332;38.646;-9.154;2024-01-25T14:11:58;9.23;;;8.33;;
4638;SDS011;2332;38.646;-9.154;2024-01-25T14:14:24;11.40;;;8.40;;
4638;SDS011;2332;38.646;-9.154;2024-01-25T14:16:49;10.80;;;8.57;;
4638;SDS011;2332;38.646;-9.154;2024-01-25T14:19:15;8.63;;;7.50;;
4638;SDS011;2332;38.646;-9.154;2024-01-25T14:21:42;8.70;;;7.53;;
4638;SDS011;2332;38.646;-9.154;2024-01-25T14:24:07;8.30;;;7.37;;
4638;SDS011;2332;38.646;-9.154;2024-01-25T14:26:33;9.27;;;8.07;;
4638;SDS011;2332;38.646;-9.154;2024-01-25T14:28:58;8.13;;;7.30;;
4638;SDS011;2332;38.646;-9.154;2024-01-25T14:31:23;8.73;;;6.97;;